sensor_id;sensor_type;location;lat;lon;timestamp;P1;durP1;ratioP1;P2;durP2;ratioP2
5225;SDS011;2632;51.666;7.146;2022-10-19T00:02:07;2.90;;;1.10;;
5225;SDS011;2632;51.666;7.146;2022-10-19T00:04:33;1.60;;;1.30;;
5225;SDS011;2632;51.666;7.146;2022-10-19T00:07:00;1.80;;;1.20;;
5225;SDS011;2632;51.666;7.146;2022-10-19T00:09:27;1.97;;;1.13;;
5225;SDS011;2632;51.666;7.146;2022-10-19T00:11:54;2.40;;;1.60;;
5225;SDS011;2632;51.666;7.146;2022-10-19T00:14:21;1.63;;;1.20;;
5225;SDS011;2632;51.666;7.146;2022-10-19T00:16:49;0.80;;;0.80;;
5225;SDS011;2632;51.666;7.146;2022-10-19T00:19:19;2.30;;;1.63;;
5225;SDS011;2632;51.666;7.146;2022-10-19T00:21:48;2.87;;;1.40;;
5225;SDS011;2632;51.666;7.146;2022-10-19T00:24:16;3.80;;;1.50;;
5225;SDS011;2632;51.666;7.146;2022-10-19T00:26:42;2.10;;;1.30;;
5225;SDS011;2632;51.666;7.146;2022-10-19T00:29:10;1.87;;;1.47;;
5225;SDS011;2632;51.666;7.146;2022-10-19T00:31:38;1.37;;;1.13;;
5225;SDS011;2632;51.666;7.146;2022-10-19T00:34:05;2.23;;;1.30;;
5225;SDS011;2632;51.666;7.146;2022-10-19T00:36:33;1.70;;;1.23;;
5225;SDS011;2632;51.666;7.146;2022-10-19T00:39:02;2.23;;;1.40;;
5225;SDS011;2632;51.666;7.146;2022-10-19T00:41:31;4.03;;;1.47;;
5225;SDS011;2632;51.666;7.146;2022-10-19T00:46:27;1.80;;;1.10;;
5225;SDS011;2632;51.666;7.146;2022-10-19T00:49:02;1.53;;;1.00;;
5225;SDS011;2632;51.666;7.146;2022-10-19T00:54:09;1.97;;;0.93;;
5225;SDS011;2632;51.666;7.146;2022-10-19T00:56:37;2.10;;;1.50;;
5225;SDS011;2632;51.666;7.146;2022-10-19T00:59:06;1.90;;;1.20;;
5225;SDS011;2632;51.666;7.146;2022-10-19T01:01:33;2.00;;;1.40;;
5225;SDS011;2632;51.666;7.146;2022-10-19T01:04:00;3.70;;;1.13;;
5225;SDS011;2632;51.666;7.146;2022-10-19T01:06:28;2.50;;;1.20;;
5225;SDS011;2632;51.666;7.146;2022-10-19T01:08:56;3.17;;;1.87;;
5225;SDS011;2632;51.666;7.146;2022-10-19T01:11:29;3.53;;;1.30;;
5225;SDS011;2632;51.666;7.146;2022-10-19T01:14:20;4.30;;;1.33;;
5225;SDS011;2632;51.666;7.146;2022-10-19T01:25:21;1.90;;;1.30;;
5225;SDS011;2632;51.666;7.146;2022-10-19T01:36:43;2.53;;;1.30;;
5225;SDS011;2632;51.666;7.146;2022-10-19T01:39:42;2.97;;;1.30;;
5225;SDS011;2632;51.666;7.146;2022-10-19T01:42:25;2.20;;;1.50;;
5225;SDS011;2632;51.666;7.146;2022-10-19T01:44:59;1.73;;;1.00;;
5225;SDS011;2632;51.666;7.146;2022-10-19T01:47:46;2.40;;;1.20;;
5225;SDS011;2632;51.666;7.146;2022-10-19T01:50:42;1.63;;;1.30;;
5225;SDS011;2632;51.666;7.146;2022-10-19T01:56:58;1.20;;;1.10;;
5225;SDS011;2632;51.666;7.146;2022-10-19T01:59:26;2.00;;;1.13;;
5225;SDS011;2632;51.666;7.146;2022-10-19T02:01:54;1.40;;;1.03;;
5225;SDS011;2632;51.666;7.146;2022-10-19T02:04:22;0.97;;;0.90;;
5225;SDS011;2632;51.666;7.146;2022-10-19T02:06:50;1.57;;;1.00;;
5225;SDS011;2632;51.666;7.146;2022-10-19T02:09:18;1.70;;;1.00;;
5225;SDS011;2632;51.666;7.146;2022-10-19T02:11:46;1.60;;;0.97;;
5225;SDS011;2632;51.666;7.146;2022-10-19T02:14:22;1.70;;;1.27;;
5225;SDS011;2632;51.666;7.146;2022-10-19T02:16:54;1.80;;;1.10;;
5225;SDS011;2632;51.666;7.146;2022-10-19T02:19:36;1.10;;;1.00;;
5225;SDS011;2632;51.666;7.146;2022-10-19T02:22:03;4.70;;;1.20;;
5225;SDS011;2632;51.666;7.146;2022-10-19T02:24:30;3.00;;;1.20;;
5225;SDS011;2632;51.666;7.146;2022-10-19T02:26:57;1.70;;;1.00;;
5225;SDS011;2632;51.666;7.146;2022-10-19T02:29:25;1.53;;;1.10;;
5225;SDS011;2632;51.666;7.146;2022-10-19T02:31:52;2.10;;;1.07;;
5225;SDS011;2632;51.666;7.146;2022-10-19T02:34:19;1.40;;;1.10;;
5225;SDS011;2632;51.666;7.146;2022-10-19T02:36:46;1.13;;;1.03;;
5225;SDS011;2632;51.666;7.146;2022-10-19T02:39:13;2.10;;;1.17;;
5225;SDS011;2632;51.666;7.146;2022-10-19T02:44:26;1.70;;;1.10;;
5225;SDS011;2632;51.666;7.146;2022-10-19T02:46:58;1.53;;;1.20;;
5225;SDS011;2632;51.666;7.146;2022-10-19T02:49:31;5.90;;;1.37;;
5225;SDS011;2632;51.666;7.146;2022-10-19T02:52:02;2.83;;;1.20;;
5225;SDS011;2632;51.666;7.146;2022-10-19T02:54:33;1.07;;;0.97;;
5225;SDS011;2632;51.666;7.146;2022-10-19T02:57:00;1.30;;;1.20;;
5225;SDS011;2632;51.666;7.146;2022-10-19T02:59:39;0.80;;;0.80;;
5225;SDS011;2632;51.666;7.146;2022-10-19T03:02:06;1.73;;;1.00;;
5225;SDS011;2632;51.666;7.146;2022-10-19T03:04:32;1.90;;;1.10;;
5225;SDS011;2632;51.666;7.146;2022-10-19T03:06:59;1.97;;;0.90;;
5225;SDS011;2632;51.666;7.146;2022-10-19T03:09:26;1.93;;;1.20;;
5225;SDS011;2632;51.666;7.146;2022-10-19T03:11:56;2.33;;;1.03;;
5225;SDS011;2632;51.666;7.146;2022-10-19T03:14:22;1.93;;;1.10;;
5225;SDS011;2632;51.666;7.146;2022-10-19T03:16:49;4.50;;;1.07;;
5225;SDS011;2632;51.666;7.146;2022-10-19T03:19:15;1.60;;;1.30;;
5225;SDS011;2632;51.666;7.146;2022-10-19T03:21:42;2.60;;;1.23;;
5225;SDS011;2632;51.666;7.146;2022-10-19T03:24:09;2.20;;;1.20;;
5225;SDS011;2632;51.666;7.146;2022-10-19T03:26:35;1.10;;;1.00;;
5225;SDS011;2632;51.666;7.146;2022-10-19T03:29:02;1.80;;;1.37;;
5225;SDS011;2632;51.666;7.146;2022-10-19T03:31:29;3.43;;;1.03;;
5225;SDS011;2632;51.666;7.146;2022-10-19T03:33:56;1.17;;;0.70;;
5225;SDS011;2632;51.666;7.146;2022-10-19T03:36:23;1.60;;;1.03;;
5225;SDS011;2632;51.666;7.146;2022-10-19T03:38:52;0.80;;;0.80;;
5225;SDS011;2632;51.666;7.146;2022-10-19T03:41:20;3.17;;;1.20;;
5225;SDS011;2632;51.666;7.146;2022-10-19T03:43:48;0.80;;;0.80;;
5225;SDS011;2632;51.666;7.146;2022-10-19T03:46:15;2.27;;;0.90;;
5225;SDS011;2632;51.666;7.146;2022-10-19T03:48:42;1.37;;;1.20;;
5225;SDS011;2632;51.666;7.146;2022-10-19T03:51:10;1.30;;;1.00;;
5225;SDS011;2632;51.666;7.146;2022-10-19T03:53:38;1.17;;;0.80;;
5225;SDS011;2632;51.666;7.146;2022-10-19T03:58:35;2.00;;;1.20;;
5225;SDS011;2632;51.666;7.146;2022-10-19T04:01:10;1.10;;;1.00;;
5225;SDS011;2632;51.666;7.146;2022-10-19T04:03:38;1.20;;;1.03;;
5225;SDS011;2632;51.666;7.146;2022-10-19T04:06:05;2.13;;;0.97;;
5225;SDS011;2632;51.666;7.146;2022-10-19T04:08:34;2.13;;;0.93;;
5225;SDS011;2632;51.666;7.146;2022-10-19T04:11:01;1.23;;;1.10;;
5225;SDS011;2632;51.666;7.146;2022-10-19T04:13:30;1.20;;;0.80;;
5225;SDS011;2632;51.666;7.146;2022-10-19T04:15:57;1.50;;;0.90;;
5225;SDS011;2632;51.666;7.146;2022-10-19T04:18:24;1.13;;;1.03;;
5225;SDS011;2632;51.666;7.146;2022-10-19T04:20:54;2.20;;;1.03;;
5225;SDS011;2632;51.666;7.146;2022-10-19T04:23:21;1.00;;;0.90;;
5225;SDS011;2632;51.666;7.146;2022-10-19T04:25:49;0.90;;;0.90;;
5225;SDS011;2632;51.666;7.146;2022-10-19T04:28:15;1.63;;;1.10;;
5225;SDS011;2632;51.666;7.146;2022-10-19T04:30:42;1.00;;;0.90;;
5225;SDS011;2632;51.666;7.146;2022-10-19T04:33:08;1.00;;;0.90;;
5225;SDS011;2632;51.666;7.146;2022-10-19T04:35:35;1.07;;;0.83;;
5225;SDS011;2632;51.666;7.146;2022-10-19T04:38:01;1.40;;;0.90;;
5225;SDS011;2632;51.666;7.146;2022-10-19T04:40:28;1.37;;;1.00;;
5225;SDS011;2632;51.666;7.146;2022-10-19T04:42:55;1.33;;;0.93;;
5225;SDS011;2632;51.666;7.146;2022-10-19T04:45:22;0.93;;;0.90;;
5225;SDS011;2632;51.666;7.146;2022-10-19T04:47:49;2.00;;;0.90;;
5225;SDS011;2632;51.666;7.146;2022-10-19T04:50:16;1.30;;;0.90;;
5225;SDS011;2632;51.666;7.146;2022-10-19T04:52:43;1.40;;;1.20;;
5225;SDS011;2632;51.666;7.146;2022-10-19T04:55:10;2.30;;;1.10;;
5225;SDS011;2632;51.666;7.146;2022-10-19T04:57:36;1.60;;;1.00;;
5225;SDS011;2632;51.666;7.146;2022-10-19T05:00:03;0.80;;;0.80;;
5225;SDS011;2632;51.666;7.146;2022-10-19T05:02:30;1.07;;;0.90;;
5225;SDS011;2632;51.666;7.146;2022-10-19T05:04:57;1.40;;;1.00;;
5225;SDS011;2632;51.666;7.146;2022-10-19T05:07:23;1.20;;;1.10;;
5225;SDS011;2632;51.666;7.146;2022-10-19T05:09:50;0.93;;;0.77;;
5225;SDS011;2632;51.666;7.146;2022-10-19T05:12:16;1.47;;;0.80;;
5225;SDS011;2632;51.666;7.146;2022-10-19T05:14:43;1.40;;;0.97;;
5225;SDS011;2632;51.666;7.146;2022-10-19T05:17:09;1.23;;;0.90;;
5225;SDS011;2632;51.666;7.146;2022-10-19T05:19:36;2.07;;;0.80;;
5225;SDS011;2632;51.666;7.146;2022-10-19T05:22:02;1.30;;;1.00;;
5225;SDS011;2632;51.666;7.146;2022-10-19T05:24:29;1.23;;;0.80;;
5225;SDS011;2632;51.666;7.146;2022-10-19T05:26:57;2.70;;;1.00;;
5225;SDS011;2632;51.666;7.146;2022-10-19T05:29:24;1.87;;;0.80;;
5225;SDS011;2632;51.666;7.146;2022-10-19T05:31:50;4.03;;;1.10;;
5225;SDS011;2632;51.666;7.146;2022-10-19T05:34:17;1.20;;;1.00;;
5225;SDS011;2632;51.666;7.146;2022-10-19T05:36:43;1.00;;;0.83;;
5225;SDS011;2632;51.666;7.146;2022-10-19T05:39:11;1.30;;;0.90;;
5225;SDS011;2632;51.666;7.146;2022-10-19T05:41:41;1.40;;;1.00;;
5225;SDS011;2632;51.666;7.146;2022-10-19T05:44:12;1.27;;;1.10;;
5225;SDS011;2632;51.666;7.146;2022-10-19T05:46:40;0.93;;;0.70;;
5225;SDS011;2632;51.666;7.146;2022-10-19T05:49:08;3.47;;;1.10;;
5225;SDS011;2632;51.666;7.146;2022-10-19T05:51:35;1.10;;;0.90;;
5225;SDS011;2632;51.666;7.146;2022-10-19T05:54:02;1.00;;;0.77;;
5225;SDS011;2632;51.666;7.146;2022-10-19T05:56:29;1.23;;;1.00;;
5225;SDS011;2632;51.666;7.146;2022-10-19T05:58:58;7.90;;;2.83;;
5225;SDS011;2632;51.666;7.146;2022-10-19T06:01:27;5.07;;;3.43;;
5225;SDS011;2632;51.666;7.146;2022-10-19T06:03:55;4.30;;;2.97;;
5225;SDS011;2632;51.666;7.146;2022-10-19T06:06:23;4.97;;;2.80;;
5225;SDS011;2632;51.666;7.146;2022-10-19T06:08:51;4.40;;;3.00;;
5225;SDS011;2632;51.666;7.146;2022-10-19T06:11:19;5.93;;;2.93;;
5225;SDS011;2632;51.666;7.146;2022-10-19T06:13:55;7.53;;;2.40;;
5225;SDS011;2632;51.666;7.146;2022-10-19T06:16:24;3.30;;;2.30;;
5225;SDS011;2632;51.666;7.146;2022-10-19T06:18:51;8.10;;;2.50;;
5225;SDS011;2632;51.666;7.146;2022-10-19T06:21:21;5.47;;;2.97;;
5225;SDS011;2632;51.666;7.146;2022-10-19T06:23:50;4.93;;;3.30;;
5225;SDS011;2632;51.666;7.146;2022-10-19T06:26:17;7.40;;;3.00;;
5225;SDS011;2632;51.666;7.146;2022-10-19T06:28:45;7.60;;;3.20;;
5225;SDS011;2632;51.666;7.146;2022-10-19T06:31:12;10.03;;;3.07;;
5225;SDS011;2632;51.666;7.146;2022-10-19T06:33:40;7.83;;;3.00;;
5225;SDS011;2632;51.666;7.146;2022-10-19T06:36:13;3.43;;;2.10;;
5225;SDS011;2632;51.666;7.146;2022-10-19T06:38:42;5.40;;;3.07;;
5225;SDS011;2632;51.666;7.146;2022-10-19T06:41:09;4.63;;;2.30;;
5225;SDS011;2632;51.666;7.146;2022-10-19T06:43:36;3.27;;;2.23;;
5225;SDS011;2632;51.666;7.146;2022-10-19T06:46:06;4.17;;;2.27;;
5225;SDS011;2632;51.666;7.146;2022-10-19T06:48:38;3.97;;;2.03;;
5225;SDS011;2632;51.666;7.146;2022-10-19T06:51:06;11.10;;;2.40;;
5225;SDS011;2632;51.666;7.146;2022-10-19T06:53:34;2.00;;;1.70;;
5225;SDS011;2632;51.666;7.146;2022-10-19T06:56:03;5.37;;;2.00;;
5225;SDS011;2632;51.666;7.146;2022-10-19T06:58:34;4.63;;;2.30;;
5225;SDS011;2632;51.666;7.146;2022-10-19T07:01:02;6.13;;;2.50;;
5225;SDS011;2632;51.666;7.146;2022-10-19T07:03:30;2.87;;;1.70;;
5225;SDS011;2632;51.666;7.146;2022-10-19T07:05:57;3.90;;;1.70;;
5225;SDS011;2632;51.666;7.146;2022-10-19T07:08:27;3.83;;;1.90;;
5225;SDS011;2632;51.666;7.146;2022-10-19T07:10:55;4.67;;;2.50;;
5225;SDS011;2632;51.666;7.146;2022-10-19T07:13:23;8.90;;;2.30;;
5225;SDS011;2632;51.666;7.146;2022-10-19T07:15:55;5.03;;;2.00;;
5225;SDS011;2632;51.666;7.146;2022-10-19T07:18:23;4.43;;;2.10;;
5225;SDS011;2632;51.666;7.146;2022-10-19T07:20:57;2.50;;;1.80;;
5225;SDS011;2632;51.666;7.146;2022-10-19T07:23:25;3.97;;;2.63;;
5225;SDS011;2632;51.666;7.146;2022-10-19T07:25:53;8.13;;;4.23;;
5225;SDS011;2632;51.666;7.146;2022-10-19T07:28:25;5.50;;;4.23;;
5225;SDS011;2632;51.666;7.146;2022-10-19T07:30:53;6.10;;;4.40;;
5225;SDS011;2632;51.666;7.146;2022-10-19T07:33:19;6.40;;;4.30;;
5225;SDS011;2632;51.666;7.146;2022-10-19T07:35:46;6.20;;;4.33;;
5225;SDS011;2632;51.666;7.146;2022-10-19T07:38:13;6.23;;;3.90;;
5225;SDS011;2632;51.666;7.146;2022-10-19T07:40:39;3.70;;;3.13;;
5225;SDS011;2632;51.666;7.146;2022-10-19T07:43:12;5.23;;;3.70;;
5225;SDS011;2632;51.666;7.146;2022-10-19T07:45:39;7.73;;;2.67;;
5225;SDS011;2632;51.666;7.146;2022-10-19T07:48:05;5.23;;;2.90;;
5225;SDS011;2632;51.666;7.146;2022-10-19T07:50:32;6.00;;;2.53;;
5225;SDS011;2632;51.666;7.146;2022-10-19T07:52:58;3.00;;;2.27;;
5225;SDS011;2632;51.666;7.146;2022-10-19T07:55:25;6.63;;;4.27;;
5225;SDS011;2632;51.666;7.146;2022-10-19T07:57:51;8.27;;;5.20;;
5225;SDS011;2632;51.666;7.146;2022-10-19T08:00:18;11.57;;;5.20;;
5225;SDS011;2632;51.666;7.146;2022-10-19T08:02:44;11.50;;;6.20;;
5225;SDS011;2632;51.666;7.146;2022-10-19T08:05:32;9.33;;;5.90;;
5225;SDS011;2632;51.666;7.146;2022-10-19T08:07:59;11.13;;;6.70;;
5225;SDS011;2632;51.666;7.146;2022-10-19T08:10:25;17.83;;;6.70;;
5225;SDS011;2632;51.666;7.146;2022-10-19T08:12:52;11.47;;;6.23;;
5225;SDS011;2632;51.666;7.146;2022-10-19T08:15:18;6.90;;;5.43;;
5225;SDS011;2632;51.666;7.146;2022-10-19T08:17:45;12.83;;;6.50;;
5225;SDS011;2632;51.666;7.146;2022-10-19T08:20:11;9.77;;;6.40;;
5225;SDS011;2632;51.666;7.146;2022-10-19T08:22:38;14.87;;;6.67;;
5225;SDS011;2632;51.666;7.146;2022-10-19T08:25:06;13.20;;;7.17;;
5225;SDS011;2632;51.666;7.146;2022-10-19T08:27:33;11.60;;;6.60;;
5225;SDS011;2632;51.666;7.146;2022-10-19T08:30:05;13.73;;;6.67;;
5225;SDS011;2632;51.666;7.146;2022-10-19T08:32:31;11.63;;;6.40;;
5225;SDS011;2632;51.666;7.146;2022-10-19T08:34:58;13.90;;;6.30;;
5225;SDS011;2632;51.666;7.146;2022-10-19T08:37:25;13.80;;;6.70;;
5225;SDS011;2632;51.666;7.146;2022-10-19T08:40:16;10.30;;;6.23;;
5225;SDS011;2632;51.666;7.146;2022-10-19T08:42:50;10.37;;;6.57;;
5225;SDS011;2632;51.666;7.146;2022-10-19T08:50:55;12.00;;;6.90;;
5225;SDS011;2632;51.666;7.146;2022-10-19T08:53:43;9.50;;;5.90;;
5225;SDS011;2632;51.666;7.146;2022-10-19T08:56:26;12.50;;;6.00;;
5225;SDS011;2632;51.666;7.146;2022-10-19T09:02:13;8.33;;;6.00;;
5225;SDS011;2632;51.666;7.146;2022-10-19T09:04:49;10.70;;;5.90;;
5225;SDS011;2632;51.666;7.146;2022-10-19T09:10:32;7.27;;;4.70;;
5225;SDS011;2632;51.666;7.146;2022-10-19T09:12:41;9.97;;;4.87;;
5225;SDS011;2632;51.666;7.146;2022-10-19T09:21:39;6.77;;;2.80;;
5225;SDS011;2632;51.666;7.146;2022-10-19T09:24:15;4.13;;;2.53;;
5225;SDS011;2632;51.666;7.146;2022-10-19T09:26:57;2.97;;;2.00;;
5225;SDS011;2632;51.666;7.146;2022-10-19T09:29:28;4.23;;;2.30;;
5225;SDS011;2632;51.666;7.146;2022-10-19T09:32:00;3.47;;;2.30;;
5225;SDS011;2632;51.666;7.146;2022-10-19T09:34:35;3.00;;;2.30;;
5225;SDS011;2632;51.666;7.146;2022-10-19T09:37:05;5.33;;;2.40;;
5225;SDS011;2632;51.666;7.146;2022-10-19T09:39:32;6.00;;;2.80;;
5225;SDS011;2632;51.666;7.146;2022-10-19T09:42:45;8.53;;;2.90;;
5225;SDS011;2632;51.666;7.146;2022-10-19T09:44:50;4.20;;;2.20;;
5225;SDS011;2632;51.666;7.146;2022-10-19T09:47:28;4.90;;;2.20;;
5225;SDS011;2632;51.666;7.146;2022-10-19T09:52:52;3.33;;;2.87;;
5225;SDS011;2632;51.666;7.146;2022-10-19T09:55:21;4.50;;;2.97;;
5225;SDS011;2632;51.666;7.146;2022-10-19T09:58:01;7.03;;;2.80;;
5225;SDS011;2632;51.666;7.146;2022-10-19T10:00:31;4.90;;;2.60;;
5225;SDS011;2632;51.666;7.146;2022-10-19T10:03:21;10.33;;;3.10;;
5225;SDS011;2632;51.666;7.146;2022-10-19T10:05:48;4.57;;;3.00;;
5225;SDS011;2632;51.666;7.146;2022-10-19T10:08:19;4.63;;;2.80;;
5225;SDS011;2632;51.666;7.146;2022-10-19T10:11:07;3.97;;;2.50;;
5225;SDS011;2632;51.666;7.146;2022-10-19T10:13:49;8.50;;;3.43;;
5225;SDS011;2632;51.666;7.146;2022-10-19T10:16:19;6.57;;;3.17;;
5225;SDS011;2632;51.666;7.146;2022-10-19T10:21:28;6.90;;;2.80;;
5225;SDS011;2632;51.666;7.146;2022-10-19T10:26:31;4.53;;;1.63;;
5225;SDS011;2632;51.666;7.146;2022-10-19T10:29:21;2.73;;;1.47;;
5225;SDS011;2632;51.666;7.146;2022-10-19T10:31:53;1.60;;;1.27;;
5225;SDS011;2632;51.666;7.146;2022-10-19T10:34:33;3.93;;;2.43;;
5225;SDS011;2632;51.666;7.146;2022-10-19T10:37:22;6.43;;;1.60;;
5225;SDS011;2632;51.666;7.146;2022-10-19T10:39:55;2.20;;;1.03;;
5225;SDS011;2632;51.666;7.146;2022-10-19T10:42:31;1.50;;;1.40;;
5225;SDS011;2632;51.666;7.146;2022-10-19T10:45:15;3.33;;;1.40;;
5225;SDS011;2632;51.666;7.146;2022-10-19T10:47:49;2.60;;;1.30;;
5225;SDS011;2632;51.666;7.146;2022-10-19T10:52:58;1.43;;;1.23;;
5225;SDS011;2632;51.666;7.146;2022-10-19T10:55:27;3.80;;;1.97;;
5225;SDS011;2632;51.666;7.146;2022-10-19T10:58:12;4.60;;;1.80;;
5225;SDS011;2632;51.666;7.146;2022-10-19T11:00:43;2.87;;;1.30;;
5225;SDS011;2632;51.666;7.146;2022-10-19T11:03:13;5.50;;;2.00;;
5225;SDS011;2632;51.666;7.146;2022-10-19T11:05:47;3.70;;;1.77;;
5225;SDS011;2632;51.666;7.146;2022-10-19T11:08:40;3.47;;;1.00;;
5225;SDS011;2632;51.666;7.146;2022-10-19T11:11:21;1.67;;;1.37;;
5225;SDS011;2632;51.666;7.146;2022-10-19T11:16:41;1.10;;;0.90;;
5225;SDS011;2632;51.666;7.146;2022-10-19T11:19:15;4.20;;;1.53;;
5225;SDS011;2632;51.666;7.146;2022-10-19T11:22:18;4.43;;;1.00;;
5225;SDS011;2632;51.666;7.146;2022-10-19T11:25:16;1.40;;;1.07;;
5225;SDS011;2632;51.666;7.146;2022-10-19T11:31:18;1.67;;;1.07;;
5225;SDS011;2632;51.666;7.146;2022-10-19T11:33:59;4.47;;;1.10;;
5225;SDS011;2632;51.666;7.146;2022-10-19T11:37:04;2.97;;;0.83;;
5225;SDS011;2632;51.666;7.146;2022-10-19T11:39:49;2.50;;;1.17;;
5225;SDS011;2632;51.666;7.146;2022-10-19T11:45:23;1.33;;;0.80;;
5225;SDS011;2632;51.666;7.146;2022-10-19T11:59:43;3.33;;;1.10;;
5225;SDS011;2632;51.666;7.146;2022-10-19T12:08:30;1.03;;;0.90;;
5225;SDS011;2632;51.666;7.146;2022-10-19T12:13:54;2.03;;;1.00;;
5225;SDS011;2632;51.666;7.146;2022-10-19T12:16:28;4.10;;;1.07;;
5225;SDS011;2632;51.666;7.146;2022-10-19T12:19:05;1.10;;;0.80;;
5225;SDS011;2632;51.666;7.146;2022-10-19T12:21:40;1.53;;;0.93;;
5225;SDS011;2632;51.666;7.146;2022-10-19T12:24:12;1.37;;;0.90;;
5225;SDS011;2632;51.666;7.146;2022-10-19T12:26:42;1.07;;;1.00;;
5225;SDS011;2632;51.666;7.146;2022-10-19T12:29:12;1.57;;;1.10;;
5225;SDS011;2632;51.666;7.146;2022-10-19T12:31:45;1.87;;;1.00;;
5225;SDS011;2632;51.666;7.146;2022-10-19T12:37:11;1.10;;;1.00;;
5225;SDS011;2632;51.666;7.146;2022-10-19T12:39:45;2.40;;;0.90;;
5225;SDS011;2632;51.666;7.146;2022-10-19T12:42:23;2.23;;;1.10;;
5225;SDS011;2632;51.666;7.146;2022-10-19T12:45:16;1.47;;;1.17;;
5225;SDS011;2632;51.666;7.146;2022-10-19T12:53:23;3.03;;;1.30;;
5225;SDS011;2632;51.666;7.146;2022-10-19T12:55:58;2.10;;;1.40;;
5225;SDS011;2632;51.666;7.146;2022-10-19T13:03:49;1.97;;;1.50;;
5225;SDS011;2632;51.666;7.146;2022-10-19T13:08:55;7.20;;;1.90;;
5225;SDS011;2632;51.666;7.146;2022-10-19T13:11:24;4.00;;;1.83;;
5225;SDS011;2632;51.666;7.146;2022-10-19T13:24:19;5.10;;;2.60;;
5225;SDS011;2632;51.666;7.146;2022-10-19T13:34:54;4.23;;;1.40;;
5225;SDS011;2632;51.666;7.146;2022-10-19T13:37:37;5.47;;;1.63;;
5225;SDS011;2632;51.666;7.146;2022-10-19T13:40:12;2.97;;;2.17;;
5225;SDS011;2632;51.666;7.146;2022-10-19T13:42:56;2.30;;;1.40;;
5225;SDS011;2632;51.666;7.146;2022-10-19T13:45:23;3.00;;;1.40;;
5225;SDS011;2632;51.666;7.146;2022-10-19T13:47:51;3.67;;;1.70;;
5225;SDS011;2632;51.666;7.146;2022-10-19T13:50:30;4.07;;;1.50;;
5225;SDS011;2632;51.666;7.146;2022-10-19T13:53:51;1.87;;;1.37;;
5225;SDS011;2632;51.666;7.146;2022-10-19T14:07:19;1.63;;;1.10;;
5225;SDS011;2632;51.666;7.146;2022-10-19T14:12:34;4.23;;;1.40;;
5225;SDS011;2632;51.666;7.146;2022-10-19T14:15:21;4.27;;;1.20;;
5225;SDS011;2632;51.666;7.146;2022-10-19T14:17:48;2.73;;;1.50;;
5225;SDS011;2632;51.666;7.146;2022-10-19T14:20:37;1.30;;;1.10;;
5225;SDS011;2632;51.666;7.146;2022-10-19T14:23:22;3.00;;;1.20;;
5225;SDS011;2632;51.666;7.146;2022-10-19T14:25:51;2.07;;;1.17;;
5225;SDS011;2632;51.666;7.146;2022-10-19T14:28:20;2.10;;;1.33;;
5225;SDS011;2632;51.666;7.146;2022-10-19T14:31:02;1.57;;;1.10;;
5225;SDS011;2632;51.666;7.146;2022-10-19T14:33:33;3.57;;;0.80;;
5225;SDS011;2632;51.666;7.146;2022-10-19T14:36:03;1.00;;;0.87;;
5225;SDS011;2632;51.666;7.146;2022-10-19T14:38:40;1.23;;;1.10;;
5225;SDS011;2632;51.666;7.146;2022-10-19T14:43:52;2.27;;;1.00;;
5225;SDS011;2632;51.666;7.146;2022-10-19T14:46:20;2.10;;;0.90;;
5225;SDS011;2632;51.666;7.146;2022-10-19T14:48:47;1.80;;;0.80;;
5225;SDS011;2632;51.666;7.146;2022-10-19T14:51:35;4.30;;;1.00;;
5225;SDS011;2632;51.666;7.146;2022-10-19T14:56:51;5.20;;;1.07;;
5225;SDS011;2632;51.666;7.146;2022-10-19T14:59:45;4.43;;;0.80;;
5225;SDS011;2632;51.666;7.146;2022-10-19T15:04:49;5.43;;;1.03;;
5225;SDS011;2632;51.666;7.146;2022-10-19T15:07:18;5.70;;;1.10;;
5225;SDS011;2632;51.666;7.146;2022-10-19T15:09:49;3.00;;;1.00;;
5225;SDS011;2632;51.666;7.146;2022-10-19T15:12:21;1.43;;;0.83;;
5225;SDS011;2632;51.666;7.146;2022-10-19T15:14:51;3.97;;;1.37;;
5225;SDS011;2632;51.666;7.146;2022-10-19T15:17:20;1.53;;;1.10;;
5225;SDS011;2632;51.666;7.146;2022-10-19T15:19:54;6.40;;;1.10;;
5225;SDS011;2632;51.666;7.146;2022-10-19T15:24:55;2.10;;;1.10;;
5225;SDS011;2632;51.666;7.146;2022-10-19T15:27:29;1.20;;;1.10;;
5225;SDS011;2632;51.666;7.146;2022-10-19T15:32:42;2.10;;;0.87;;
5225;SDS011;2632;51.666;7.146;2022-10-19T15:35:39;7.73;;;1.17;;
5225;SDS011;2632;51.666;7.146;2022-10-19T15:40:44;6.03;;;1.13;;
5225;SDS011;2632;51.666;7.146;2022-10-19T15:53:50;3.70;;;1.17;;
5225;SDS011;2632;51.666;7.146;2022-10-19T15:56:28;1.00;;;0.77;;
5225;SDS011;2632;51.666;7.146;2022-10-19T15:58:57;4.27;;;0.97;;
5225;SDS011;2632;51.666;7.146;2022-10-19T16:01:28;3.47;;;1.20;;
5225;SDS011;2632;51.666;7.146;2022-10-19T16:03:58;1.30;;;1.03;;
5225;SDS011;2632;51.666;7.146;2022-10-19T16:06:26;2.10;;;1.10;;
5225;SDS011;2632;51.666;7.146;2022-10-19T16:08:55;3.83;;;1.07;;
5225;SDS011;2632;51.666;7.146;2022-10-19T16:11:24;3.43;;;1.20;;
5225;SDS011;2632;51.666;7.146;2022-10-19T16:13:51;1.80;;;1.20;;
5225;SDS011;2632;51.666;7.146;2022-10-19T16:16:23;3.33;;;1.33;;
5225;SDS011;2632;51.666;7.146;2022-10-19T16:18:54;4.37;;;1.57;;
5225;SDS011;2632;51.666;7.146;2022-10-19T16:21:24;2.43;;;1.17;;
5225;SDS011;2632;51.666;7.146;2022-10-19T16:23:53;4.93;;;1.97;;
5225;SDS011;2632;51.666;7.146;2022-10-19T16:26:20;3.23;;;1.10;;
5225;SDS011;2632;51.666;7.146;2022-10-19T16:28:47;2.30;;;1.13;;
5225;SDS011;2632;51.666;7.146;2022-10-19T16:31:14;4.67;;;1.13;;
5225;SDS011;2632;51.666;7.146;2022-10-19T16:33:41;1.30;;;1.00;;
5225;SDS011;2632;51.666;7.146;2022-10-19T16:36:08;3.30;;;1.03;;
5225;SDS011;2632;51.666;7.146;2022-10-19T16:38:35;2.87;;;0.90;;
5225;SDS011;2632;51.666;7.146;2022-10-19T16:41:03;1.23;;;0.90;;
5225;SDS011;2632;51.666;7.146;2022-10-19T16:43:34;3.63;;;1.20;;
5225;SDS011;2632;51.666;7.146;2022-10-19T16:46:01;0.90;;;0.80;;
5225;SDS011;2632;51.666;7.146;2022-10-19T16:48:28;1.97;;;0.83;;
5225;SDS011;2632;51.666;7.146;2022-10-19T16:51:38;2.03;;;0.80;;
5225;SDS011;2632;51.666;7.146;2022-10-19T16:54:11;1.73;;;1.37;;
5225;SDS011;2632;51.666;7.146;2022-10-19T16:56:42;5.60;;;1.40;;
5225;SDS011;2632;51.666;7.146;2022-10-19T16:59:11;1.50;;;1.10;;
5225;SDS011;2632;51.666;7.146;2022-10-19T17:01:42;1.30;;;0.93;;
5225;SDS011;2632;51.666;7.146;2022-10-19T17:04:11;2.90;;;1.13;;
5225;SDS011;2632;51.666;7.146;2022-10-19T17:06:39;2.53;;;1.17;;
5225;SDS011;2632;51.666;7.146;2022-10-19T17:09:05;2.00;;;1.10;;
5225;SDS011;2632;51.666;7.146;2022-10-19T17:11:52;2.40;;;1.20;;
5225;SDS011;2632;51.666;7.146;2022-10-19T17:14:19;3.97;;;0.97;;
5225;SDS011;2632;51.666;7.146;2022-10-19T17:16:45;2.80;;;0.90;;
5225;SDS011;2632;51.666;7.146;2022-10-19T17:19:12;1.50;;;1.07;;
5225;SDS011;2632;51.666;7.146;2022-10-19T17:21:38;2.40;;;1.30;;
5225;SDS011;2632;51.666;7.146;2022-10-19T17:24:10;1.43;;;1.00;;
5225;SDS011;2632;51.666;7.146;2022-10-19T17:26:46;0.87;;;0.87;;
5225;SDS011;2632;51.666;7.146;2022-10-19T17:29:14;1.30;;;1.20;;
5225;SDS011;2632;51.666;7.146;2022-10-19T17:31:40;4.33;;;1.93;;
5225;SDS011;2632;51.666;7.146;2022-10-19T17:34:08;4.20;;;1.30;;
5225;SDS011;2632;51.666;7.146;2022-10-19T17:36:36;1.57;;;0.93;;
5225;SDS011;2632;51.666;7.146;2022-10-19T17:39:14;1.33;;;1.20;;
5225;SDS011;2632;51.666;7.146;2022-10-19T17:41:52;2.33;;;1.13;;
5225;SDS011;2632;51.666;7.146;2022-10-19T17:44:19;2.40;;;1.60;;
5225;SDS011;2632;51.666;7.146;2022-10-19T17:46:46;1.83;;;0.93;;
5225;SDS011;2632;51.666;7.146;2022-10-19T17:49:13;8.23;;;0.90;;
5225;SDS011;2632;51.666;7.146;2022-10-19T17:51:40;1.63;;;0.90;;
5225;SDS011;2632;51.666;7.146;2022-10-19T17:54:07;1.80;;;1.10;;
5225;SDS011;2632;51.666;7.146;2022-10-19T17:56:36;6.57;;;1.00;;
5225;SDS011;2632;51.666;7.146;2022-10-19T17:59:03;1.37;;;0.97;;
5225;SDS011;2632;51.666;7.146;2022-10-19T18:01:32;1.17;;;0.97;;
5225;SDS011;2632;51.666;7.146;2022-10-19T18:03:59;7.60;;;1.50;;
5225;SDS011;2632;51.666;7.146;2022-10-19T18:06:26;1.60;;;1.10;;
5225;SDS011;2632;51.666;7.146;2022-10-19T18:08:56;2.70;;;1.00;;
5225;SDS011;2632;51.666;7.146;2022-10-19T18:11:25;3.47;;;1.10;;
5225;SDS011;2632;51.666;7.146;2022-10-19T18:13:58;5.43;;;1.10;;
5225;SDS011;2632;51.666;7.146;2022-10-19T18:16:27;2.60;;;1.10;;
5225;SDS011;2632;51.666;7.146;2022-10-19T18:18:56;1.10;;;1.00;;
5225;SDS011;2632;51.666;7.146;2022-10-19T18:21:24;5.13;;;1.40;;
5225;SDS011;2632;51.666;7.146;2022-10-19T18:23:54;1.80;;;1.17;;
5225;SDS011;2632;51.666;7.146;2022-10-19T18:26:23;1.23;;;1.00;;